Time;durP1;ratioP1;P1;durP2;ratioP2;P2;SDS_P1;SDS_P2;PMS_P1;PMS_P2;Temp;Humidity;BMP_temperature;BMP_pressure;BME280_temperature;BME280_humidity;BME280_pressure;Samples;Min_cycle;Max_cycle;Signal;HPM_P1;HPM_P2
2022/06/08 00:00:53;;;;;;;5.10;3.43;;;12.20;99.90;;;;;;5043640;28;20942;-43
2022/06/08 00:03:24;;;;;;;5.03;3.80;;;12.00;99.90;;;;;;5042845;28;20294;-43
2022/06/08 00:05:51;;;;;;;4.80;3.87;;;11.90;99.90;;;;;;5044084;28;20289;-45
2022/06/08 00:08:19;;;;;;;5.07;3.77;;;11.90;99.90;;;;;;5034397;28;20215;-43
2022/06/08 00:10:46;;;;;;;3.93;3.63;;;11.80;99.90;;;;;;5052149;28;20234;-42
2022/06/08 00:13:13;;;;;;;4.63;3.90;;;11.80;99.90;;;;;;5044117;28;20657;-42
2022/06/08 00:15:40;;;;;;;3.67;3.37;;;11.70;99.90;;;;;;5041572;28;20198;-43
2022/06/08 00:18:09;;;;;;;7.90;4.13;;;11.70;99.90;;;;;;5048748;28;20674;-45
2022/06/08 00:20:37;;;;;;;7.70;4.20;;;;;;;;;;5055629;28;20217;-43
2022/06/08 00:23:04;;;;;;;5.90;4.07;;;11.60;99.90;;;;;;5043681;28;20264;-43
2022/06/08 00:25:33;;;;;;;7.30;4.00;;;11.60;99.90;;;;;;5046162;28;20196;-44
2022/06/08 00:27:59;;;;;;;4.30;3.90;;;11.60;99.90;;;;;;5044420;28;20223;-43
2022/06/08 00:30:26;;;;;;;8.73;4.47;;;11.50;99.90;;;;;;5041483;28;20304;-43
2022/06/08 00:32:55;;;;;;;4.43;3.73;;;11.50;99.90;;;;;;5044583;28;20245;-42
2022/06/08 00:35:23;;;;;;;4.30;3.50;;;11.60;99.90;;;;;;5041857;28;20248;-42
2022/06/08 00:37:50;;;;;;;5.87;4.33;;;11.60;99.90;;;;;;5034136;28;20211;-42
2022/06/08 00:40:20;;;;;;;4.83;3.73;;;11.60;99.90;;;;;;5044821;28;20268;-42
2022/06/08 00:42:49;;;;;;;4.10;3.77;;;11.70;99.90;;;;;;5046559;28;20191;-44
2022/06/08 00:45:19;;;;;;;6.83;4.03;;;11.70;99.90;;;;;;5056930;28;20207;-42
2022/06/08 00:47:49;;;;;;;4.87;3.80;;;11.70;99.90;;;;;;5061396;28;20226;-42
2022/06/08 00:50:20;;;;;;;7.10;3.60;;;11.60;99.90;;;;;;5059255;28;20287;-43
2022/06/08 00:52:48;;;;;;;5.83;3.43;;;11.60;99.90;;;;;;5046153;28;20203;-42
2022/06/08 00:55:19;;;;;;;4.47;3.50;;;11.60;99.90;;;;;;5043173;28;20660;-43
2022/06/08 00:57:52;;;;;;;3.67;3.33;;;11.50;99.90;;;;;;5044659;28;20202;-42
2022/06/08 01:00:22;;;;;;;4.27;3.53;;;11.50;99.90;;;;;;5042420;28;20859;-42
2022/06/08 01:02:49;;;;;;;4.47;4.00;;;11.50;99.90;;;;;;5041376;28;20206;-42
2022/06/08 01:05:23;;;;;;;4.00;3.60;;;11.40;99.90;;;;;;5040771;28;20217;-44
2022/06/08 01:07:55;;;;;;;6.33;3.63;;;11.40;99.90;;;;;;5054828;28;20227;-43
2022/06/08 01:10:25;;;;;;;5.37;3.80;;;11.40;99.90;;;;;;5029637;28;20660;-42
2022/06/08 01:12:56;;;;;;;8.23;3.87;;;11.30;99.90;;;;;;5052868;28;20206;-43
2022/06/08 01:15:26;;;;;;;5.33;3.40;;;11.30;99.90;;;;;;5042198;28;20518;-45
2022/06/08 01:17:53;;;;;;;6.17;3.70;;;11.40;99.90;;;;;;5042438;28;20199;-42
2022/06/08 01:20:21;;;;;;;5.00;4.00;;;11.30;99.90;;;;;;5045620;28;20258;-42
2022/06/08 01:22:50;;;;;;;5.27;3.90;;;11.30;99.90;;;;;;5055534;28;20191;-43
2022/06/08 01:25:17;;;;;;;3.80;3.50;;;11.30;99.90;;;;;;5028809;28;20258;-46
2022/06/08 01:28:08;;;;;;;6.23;3.70;;;11.20;99.90;;;;;;5052497;28;20219;-43
2022/06/08 01:30:48;;;;;;;6.20;4.00;;;11.10;99.90;;;;;;5044266;28;20749;-43
2022/06/08 01:33:45;;;;;;;5.03;3.63;;;11.10;99.90;;;;;;5038237;28;20206;-43
2022/06/08 01:36:32;;;;;;;5.67;3.73;;;11.00;99.90;;;;;;5038513;28;20207;-42
2022/06/08 01:39:05;;;;;;;3.97;3.50;;;11.00;99.90;;;;;;5037233;28;20644;-45
2022/06/08 01:41:57;;;;;;;5.63;4.03;;;11.00;99.90;;;;;;5057169;28;20265;-44
2022/06/08 01:44:38;;;;;;;5.10;3.80;;;11.00;99.90;;;;;;5039800;28;20183;-42
2022/06/08 01:47:10;;;;;;;5.10;4.43;;;11.10;99.90;;;;;;5040803;28;20222;-43
2022/06/08 01:49:43;;;;;;;4.73;3.77;;;11.00;99.90;;;;;;5043812;28;20680;-42
2022/06/08 01:52:22;;;;;;;4.37;4.00;;;11.00;99.90;;;;;;5038576;28;20207;-45
2022/06/08 01:55:02;;;;;;;7.00;4.37;;;11.10;99.90;;;;;;5034191;28;20264;-42
2022/06/08 01:57:55;;;;;;;4.80;4.03;;;11.10;99.90;;;;;;5057263;28;20282;-42
2022/06/08 02:00:25;;;;;;;5.60;4.30;;;11.10;99.90;;;;;;5044920;28;20239;-42
2022/06/08 02:03:06;;;;;;;5.43;4.13;;;11.10;99.90;;;;;;5041072;28;20203;-42
2022/06/08 02:05:43;;;;;;;7.20;4.60;;;11.00;99.90;;;;;;5041778;28;20300;-42
2022/06/08 02:08:18;;;;;;;5.60;4.47;;;11.00;99.90;;;;;;5038061;28;20840;-44
2022/06/08 02:10:54;;;;;;;4.87;4.43;;;10.90;99.90;;;;;;5037605;28;20219;-42
2022/06/08 02:13:28;;;;;;;6.77;4.23;;;10.90;99.90;;;;;;5047001;28;20202;-42
2022/06/08 02:16:00;;;;;;;5.07;4.40;;;10.90;99.90;;;;;;5040909;28;20207;-43
2022/06/08 02:18:37;;;;;;;7.03;4.43;;;10.80;99.90;;;;;;5040276;28;20866;-44
2022/06/08 02:21:08;;;;;;;5.87;3.97;;;10.90;99.90;;;;;;5040887;28;20219;-43
2022/06/08 02:23:46;;;;;;;4.63;4.10;;;10.90;99.90;;;;;;5041785;28;20751;-42
2022/06/08 02:26:17;;;;;;;4.60;4.20;;;10.90;99.90;;;;;;5031301;28;20199;-42
2022/06/08 02:28:49;;;;;;;5.07;4.17;;;10.90;99.90;;;;;;5044675;28;20219;-42
2022/06/08 02:31:20;;;;;;;7.47;4.37;;;10.90;99.90;;;;;;5037990;28;20204;-42
2022/06/08 02:36:44;;;;;;;5.37;4.93;;;10.80;99.90;;;;;;5045502;28;20191;-42
2022/06/08 02:39:16;;;;;;;5.43;4.13;;;10.80;99.90;;;;;;5047269;28;20215;-42
2022/06/08 02:41:47;;;;;;;8.07;4.83;;;10.70;99.90;;;;;;5039371;28;20549;-42
2022/06/08 02:44:19;;;;;;;4.17;3.77;;;10.80;99.90;;;;;;5052507;28;20195;-43
2022/06/08 02:46:52;;;;;;;6.53;4.40;;;10.80;99.90;;;;;;5045349;28;20310;-42
2022/06/08 02:49:23;;;;;;;5.37;4.60;;;10.90;99.90;;;;;;5055659;28;20409;-42
2022/06/08 02:51:57;;;;;;;4.70;4.30;;;10.90;99.90;;;;;;5045125;28;20213;-43
2022/06/08 02:54:27;;;;;;;4.80;4.10;;;10.80;99.90;;;;;;5044042;28;20200;-42
2022/06/08 02:57:08;;;;;;;6.87;4.47;;;10.80;99.90;;;;;;5038203;28;20202;-42
2022/06/08 02:59:45;;;;;;;5.00;4.50;;;10.80;99.90;;;;;;5048530;28;20230;-42
2022/06/08 03:02:22;;;;;;;4.33;4.00;;;10.70;99.90;;;;;;5041250;28;20206;-42
2022/06/08 03:04:57;;;;;;;4.40;4.10;;;10.60;99.90;;;;;;5051060;28;20199;-42
2022/06/08 03:07:27;;;;;;;4.77;3.80;;;10.50;99.90;;;;;;5049521;28;20431;-43
2022/06/08 03:09:58;;;;;;;6.60;4.53;;;10.60;99.90;;;;;;5044036;28;20249;-43
2022/06/08 03:12:33;;;;;;;5.97;4.53;;;10.60;99.90;;;;;;5039143;28;20219;-48
2022/06/08 03:15:01;;;;;;;4.17;3.87;;;10.50;99.90;;;;;;5052698;28;20198;-45
2022/06/08 03:17:34;;;;;;;6.43;4.30;;;10.40;99.90;;;;;;5044583;28;20288;-44
2022/06/08 03:20:04;;;;;;;5.00;4.50;;;10.40;99.90;;;;;;5051352;28;20249;-46
2022/06/08 03:22:32;;;;;;;5.40;4.57;;;10.30;99.90;;;;;;5044756;28;20203;-47
2022/06/08 03:25:00;;;;;;;4.63;4.23;;;10.30;99.90;;;;;;5040768;28;20780;-43
2022/06/08 03:27:29;;;;;;;5.10;4.70;;;10.30;99.90;;;;;;5037592;28;20231;-46
2022/06/08 03:29:57;;;;;;;5.10;4.73;;;10.30;99.90;;;;;;5049541;28;20214;-43
2022/06/08 03:32:25;;;;;;;5.33;4.73;;;10.30;99.90;;;;;;5044499;28;20208;-43
2022/06/08 03:34:52;;;;;;;7.37;5.90;;;10.30;99.90;;;;;;5041510;28;20935;-43
2022/06/08 03:37:19;;;;;;;5.83;4.33;;;10.30;99.90;;;;;;5044413;28;20699;-42
2022/06/08 03:39:51;;;;;;;8.73;5.73;;;10.30;99.90;;;;;;5041192;28;20238;-44
2022/06/08 03:42:19;;;;;;;5.97;4.83;;;10.30;99.90;;;;;;5055359;28;20308;-46
2022/06/08 03:44:46;;;;;;;5.07;4.67;;;10.40;99.90;;;;;;5039882;28;20503;-44
2022/06/08 03:47:19;;;;;;;6.57;5.53;;;10.40;99.90;;;;;;5050222;28;20199;-43
2022/06/08 03:49:48;;;;;;;6.17;5.33;;;10.40;99.90;;;;;;5053310;28;20780;-43
2022/06/08 03:52:18;;;;;;;5.60;5.10;;;10.40;99.90;;;;;;5063063;28;20258;-43
2022/06/08 03:54:49;;;;;;;5.77;5.23;;;10.50;99.90;;;;;;5061466;28;20199;-43
2022/06/08 03:57:19;;;;;;;8.47;5.10;;;10.50;99.90;;;;;;5064471;28;20240;-47
2022/06/08 03:59:49;;;;;;;5.07;4.57;;;10.50;99.90;;;;;;5046476;28;20219;-43
2022/06/08 04:02:17;;;;;;;6.00;4.90;;;10.40;99.90;;;;;;5044762;28;20698;-43
2022/06/08 04:04:46;;;;;;;6.00;5.40;;;10.40;99.90;;;;;;5045679;28;20717;-43
2022/06/08 04:07:14;;;;;;;5.37;4.87;;;10.30;99.90;;;;;;5043597;28;20221;-43
2022/06/08 04:09:45;;;;;;;6.37;5.17;;;10.40;99.90;;;;;;5048984;28;20695;-43
2022/06/08 04:12:13;;;;;;;5.63;5.20;;;10.40;99.90;;;;;;5043121;28;20195;-43
2022/06/08 04:14:41;;;;;;;5.53;5.03;;;10.40;99.90;;;;;;5038814;28;20198;-46
2022/06/08 04:17:13;;;;;;;5.83;5.23;;;10.40;99.90;;;;;;5051782;28;20224;-43
2022/06/08 04:19:40;;;;;;;5.50;5.00;;;10.50;99.90;;;;;;5041483;28;20211;-43
2022/06/08 04:22:07;;;;;;;5.93;5.43;;;10.50;99.90;;;;;;5050599;28;20689;-46
2022/06/08 04:24:37;;;;;;;5.27;4.83;;;10.60;99.90;;;;;;5039562;28;20199;-48
2022/06/08 04:27:05;;;;;;;8.57;5.27;;;10.60;99.90;;;;;;5054989;28;20195;-48
2022/06/08 04:29:38;;;;;;;5.57;4.83;;;10.70;99.90;;;;;;5042475;28;21265;-44
2022/06/08 04:32:07;;;;;;;6.17;5.37;;;10.80;99.90;;;;;;5049095;28;20716;-42
2022/06/08 04:34:36;;;;;;;6.90;5.17;;;10.80;99.90;;;;;;5042540;28;20236;-43
2022/06/08 04:37:05;;;;;;;5.83;5.33;;;10.90;99.90;;;;;;5040839;28;20199;-46
2022/06/08 04:39:40;;;;;;;6.50;5.90;;;10.90;99.90;;;;;;5037051;28;20707;-47
2022/06/08 04:42:07;;;;;;;8.73;6.00;;;11.00;99.90;;;;;;5056386;28;20203;-43
2022/06/08 04:44:42;;;;;;;7.40;5.60;;;11.10;99.90;;;;;;5043705;28;20207;-44
2022/06/08 04:47:13;;;;;;;6.27;5.53;;;11.20;99.90;;;;;;5043074;28;20183;-43
2022/06/08 04:49:43;;;;;;;6.37;5.77;;;11.30;99.90;;;;;;5045872;28;20227;-43
2022/06/08 04:52:11;;;;;;;11.23;6.83;;;11.30;99.90;;;;;;5037434;28;20202;-46
2022/06/08 04:54:38;;;;;;;11.63;6.87;;;11.40;99.90;;;;;;5043896;28;20195;-45
2022/06/08 04:57:05;;;;;;;8.33;6.63;;;11.50;99.90;;;;;;5055610;28;20206;-43
2022/06/08 04:59:33;;;;;;;7.60;6.80;;;11.60;99.90;;;;;;5056716;28;20235;-44
2022/06/08 05:02:10;;;;;;;8.00;7.07;;;11.70;99.90;;;;;;5033513;28;20209;-43
2022/06/08 05:04:38;;;;;;;10.70;7.83;;;11.80;99.90;;;;;;5055163;28;20260;-45
2022/06/08 05:07:07;;;;;;;9.03;7.73;;;11.90;99.90;;;;;;5051770;28;20204;-43
2022/06/08 05:09:36;;;;;;;9.43;7.37;;;12.00;99.90;;;;;;5046558;28;20265;-45
2022/06/08 05:12:05;;;;;;;7.43;6.63;;;12.10;99.90;;;;;;5048359;28;20568;-43
2022/06/08 05:14:32;;;;;;;13.20;6.67;;;12.20;99.90;;;;;;5050712;28;20226;-44
2022/06/08 05:16:59;;;;;;;6.77;6.07;;;12.20;99.90;;;;;;5036272;28;20202;-43
2022/06/08 05:19:27;;;;;;;7.87;7.07;;;12.30;99.90;;;;;;5046340;28;20222;-46
2022/06/08 05:21:54;;;;;;;9.63;6.67;;;12.40;99.90;;;;;;5046783;28;20187;-44
2022/06/08 05:24:26;;;;;;;7.37;6.50;;;12.50;99.90;;;;;;5041428;28;20962;-43
2022/06/08 05:26:54;;;;;;;10.07;6.53;;;12.60;99.90;;;;;;5049565;28;20214;-43
2022/06/08 05:29:24;;;;;;;11.57;6.90;;;;;;;;;;5049137;28;20954;-45
2022/06/08 05:31:56;;;;;;;11.77;6.63;;;;;;;;;;5048876;28;20203;-43
2022/06/08 05:34:25;;;;;;;7.70;6.33;;;;;;;;;;5040572;28;20303;-47
2022/06/08 05:36:54;;;;;;;9.30;7.40;;;;;;;;;;5042567;28;20230;-43
2022/06/08 05:39:26;;;;;;;10.67;7.17;;;;;;;;;;5047536;28;20213;-43
2022/06/08 05:41:53;;;;;;;9.87;6.83;;;;;;;;;;5051117;28;20194;-44
2022/06/08 05:44:21;;;;;;;9.70;7.60;;;13.20;99.90;;;;;;5053841;28;20282;-43
2022/06/08 05:46:52;;;;;;;9.07;7.60;;;13.20;99.90;;;;;;5048216;28;20204;-41
2022/06/08 05:49:18;;;;;;;8.50;7.23;;;13.30;99.90;;;;;;5031213;28;20226;-41
2022/06/08 05:51:48;;;;;;;9.30;7.23;;;13.40;99.90;;;;;;5047976;28;20208;-41
2022/06/08 05:54:19;;;;;;;10.90;8.70;;;13.50;99.90;;;;;;5040233;28;20210;-40
2022/06/08 05:56:48;;;;;;;8.37;7.33;;;13.60;99.90;;;;;;5043046;28;20251;-43
2022/06/08 05:59:15;;;;;;;11.03;8.30;;;13.60;99.90;;;;;;5048991;28;20226;-44
2022/06/08 06:01:43;;;;;;;14.63;7.50;;;13.70;99.90;;;;;;5053877;28;20195;-41
2022/06/08 06:04:10;;;;;;;11.23;7.47;;;13.70;99.90;;;;;;5029538;28;20302;-42
2022/06/08 06:06:43;;;;;;;8.07;7.27;;;13.80;99.90;;;;;;5043910;28;20207;-41
2022/06/08 06:09:11;;;;;;;13.43;7.90;;;13.90;99.90;;;;;;5051784;28;20296;-41
2022/06/08 06:11:38;;;;;;;9.60;7.83;;;14.00;99.90;;;;;;5042171;28;20191;-44
2022/06/08 06:14:07;;;;;;;10.63;8.85;;;14.00;99.90;;;;;;5047654;28;20785;-41
2022/06/08 06:16:36;;;;;;;10.97;7.47;;;14.10;99.90;;;;;;5069701;28;20942;-42
2022/06/08 06:19:04;;;;;;;13.90;7.87;;;14.10;99.90;;;;;;5050773;28;20241;-42
2022/06/08 06:21:41;;;;;;;13.27;8.10;;;14.20;99.90;;;;;;5057967;28;20236;-41
2022/06/08 06:24:17;;;;;;;9.33;7.33;;;14.20;99.90;;;;;;5061431;28;20277;-43
2022/06/08 06:26:52;;;;;;;13.63;8.17;;;14.30;99.90;;;;;;5055880;28;20359;-43
2022/06/08 06:29:56;;;;;;;13.67;8.27;;;14.40;99.90;;;;;;5057150;28;20214;-42
2022/06/08 06:32:49;;;;;;;8.73;7.73;;;14.60;99.90;;;;;;5059201;28;20223;-42
2022/06/08 06:35:22;;;;;;;9.93;8.63;;;14.70;99.90;;;;;;5046874;28;20213;-41
2022/06/08 06:37:49;;;;;;;13.87;8.53;;;14.70;99.90;;;;;;5057774;28;20183;-43
2022/06/08 06:40:17;;;;;;;8.23;7.43;;;14.70;99.90;;;;;;5043247;28;20207;-44
2022/06/08 06:42:46;;;;;;;11.47;8.50;;;14.80;99.90;;;;;;5043820;28;20183;-44
2022/06/08 06:45:38;;;;;;;10.37;7.17;;;15.00;99.90;;;;;;5046543;28;20207;-42
2022/06/08 06:48:19;;;;;;;13.87;8.40;;;15.20;99.90;;;;;;5044257;28;20210;-41
2022/06/08 06:50:46;;;;;;;10.40;7.50;;;15.20;99.90;;;;;;5046298;28;20211;-41
2022/06/08 06:53:14;;;;;;;11.83;7.40;;;15.20;99.90;;;;;;5054366;28;20325;-42
2022/06/08 06:55:46;;;;;;;9.90;8.20;;;15.30;99.90;;;;;;5049721;28;20210;-43
2022/06/08 06:58:22;;;;;;;11.37;7.70;;;15.30;99.90;;;;;;5048973;28;20203;-43
2022/06/08 07:00:50;;;;;;;12.83;8.47;;;15.30;99.90;;;;;;5050329;28;20218;-44
2022/06/08 07:03:18;;;;;;;10.73;8.33;;;15.30;99.90;;;;;;5054094;28;20207;-43
2022/06/08 07:05:48;;;;;;;10.93;8.13;;;15.40;99.90;;;;;;5038129;28;21057;-42
2022/06/08 07:08:15;;;;;;;11.57;8.40;;;15.50;99.90;;;;;;5045869;28;20191;-41
2022/06/08 07:10:43;;;;;;;11.80;8.87;;;15.50;99.90;;;;;;5051938;28;20306;-44
2022/06/08 07:13:13;;;;;;;12.20;7.50;;;15.60;99.90;;;;;;5054227;28;20203;-42
2022/06/08 07:15:39;;;;;;;7.60;6.90;;;15.70;99.90;;;;;;5043393;28;20195;-42
2022/06/08 07:18:09;;;;;;;10.73;7.63;;;15.70;99.90;;;;;;5049662;28;20239;-42
2022/06/08 07:20:36;;;;;;;14.40;7.27;;;15.70;99.90;;;;;;5032893;28;20250;-44
2022/06/08 07:23:04;;;;;;;11.40;7.77;;;15.80;99.90;;;;;;5058638;28;20195;-46
2022/06/08 07:25:30;;;;;;;10.37;7.00;;;15.90;99.90;;;;;;5046123;28;20198;-42
2022/06/08 07:27:57;;;;;;;8.53;7.63;;;15.90;99.90;;;;;;5050195;28;20229;-41
2022/06/08 07:30:24;;;;;;;11.57;6.97;;;16.00;99.90;;;;;;5048986;28;20219;-41
2022/06/08 07:32:51;;;;;;;7.87;6.37;;;16.00;99.90;;;;;;5045558;28;20198;-41
2022/06/08 07:35:19;;;;;;;10.10;7.00;;;16.00;99.90;;;;;;5065265;28;20187;-42
2022/06/08 07:37:46;;;;;;;10.73;7.53;;;16.00;99.90;;;;;;5040924;28;20332;-41
2022/06/08 07:40:13;;;;;;;10.53;7.20;;;16.10;99.90;;;;;;5043616;28;20219;-43
2022/06/08 07:42:39;;;;;;;9.40;7.30;;;16.20;99.90;;;;;;5051412;28;20191;-42
2022/06/08 07:45:09;;;;;;;9.30;7.23;;;16.20;99.90;;;;;;5056138;28;20210;-44
2022/06/08 07:49:36;;;;;;;10.93;7.23;;;16.30;99.90;;;;;;5055478;28;20667;-42
2022/06/08 07:50:24;;;;;;;8.37;7.13;;;16.30;99.90;;;;;;5044851;28;21002;-42
2022/06/08 07:52:50;;;;;;;10.90;7.33;;;16.40;99.90;;;;;;5038939;28;20737;-42
2022/06/08 07:55:17;;;;;;;11.60;7.13;;;16.40;99.90;;;;;;5050566;28;20318;-42
2022/06/08 07:57:47;;;;;;;12.13;7.50;;;16.40;99.90;;;;;;5052045;28;20199;-45
2022/06/08 08:00:15;;;;;;;11.73;7.50;;;16.40;99.90;;;;;;5042559;28;20215;-42
2022/06/08 08:02:42;;;;;;;9.60;7.77;;;16.40;99.90;;;;;;5044777;28;20555;-42
2022/06/08 08:05:11;;;;;;;13.17;7.10;;;16.30;99.90;;;;;;5048072;28;20269;-43
2022/06/08 08:07:40;;;;;;;13.30;7.73;;;16.30;99.90;;;;;;5060389;28;20659;-42
2022/06/08 08:10:10;;;;;;;9.10;7.37;;;16.40;99.90;;;;;;5037415;28;20281;-45
2022/06/08 08:12:37;;;;;;;9.00;7.37;;;16.40;99.90;;;;;;5052961;28;20201;-46
2022/06/08 08:15:06;;;;;;;10.13;7.60;;;16.40;99.90;;;;;;5047192;28;20328;-42
2022/06/08 08:17:33;;;;;;;8.40;6.47;;;16.50;99.90;;;;;;5062333;28;20199;-42
2022/06/08 08:19:59;;;;;;;8.57;6.40;;;16.60;99.90;;;;;;5047143;28;20222;-42
2022/06/08 08:22:27;;;;;;;12.73;7.20;;;16.60;99.90;;;;;;5052298;28;20960;-45
2022/06/08 08:24:55;;;;;;;8.40;6.47;;;16.70;99.90;;;;;;5048037;28;20279;-44
2022/06/08 08:27:21;;;;;;;8.13;6.33;;;16.70;99.90;;;;;;5055239;28;20862;-42
2022/06/08 08:29:48;;;;;;;9.13;6.97;;;16.70;99.90;;;;;;5056185;28;20709;-42
2022/06/08 08:32:15;;;;;;;7.60;6.70;;;16.80;99.90;;;;;;5053330;28;20895;-43
2022/06/08 08:34:41;;;;;;;8.30;6.33;;;16.90;99.90;;;;;;5049286;28;20245;-41
2022/06/08 08:37:08;;;;;;;9.83;6.50;;;17.00;99.90;;;;;;5056988;28;20200;-41
2022/06/08 08:39:35;;;;;;;8.20;6.63;;;17.00;99.90;;;;;;5043647;28;20226;-42
2022/06/08 08:42:22;;;;;;;6.97;4.97;;;16.90;99.90;;;;;;5053069;28;20191;-42
2022/06/08 08:44:52;;;;;;;5.90;5.40;;;16.90;99.90;;;;;;5041989;28;20272;-42
2022/06/08 08:47:38;;;;;;;5.17;4.67;;;17.00;99.90;;;;;;5053992;28;20280;-44
2022/06/08 08:50:16;;;;;;;7.97;5.13;;;17.10;99.90;;;;;;5047069;28;20246;-43
2022/06/08 08:52:50;;;;;;;8.63;5.63;;;17.30;99.90;;;;;;5046100;28;20202;-45
2022/06/08 08:55:23;;;;;;;9.30;5.10;;;17.30;99.90;;;;;;5043932;28;20317;-43
2022/06/08 08:57:56;;;;;;;5.47;4.93;;;17.40;99.90;;;;;;5048446;28;20979;-48
2022/06/08 09:00:31;;;;;;;7.57;5.30;;;17.50;99.90;;;;;;5055062;28;21853;-44
2022/06/08 09:03:18;;;;;;;6.13;5.23;;;17.50;99.90;;;;;;5048611;28;20194;-46
2022/06/08 09:05:49;;;;;;;3.50;3.20;;;17.50;99.90;;;;;;5046478;28;20214;-43
2022/06/08 09:08:17;;;;;;;3.60;3.30;;;17.50;99.90;;;;;;5059706;28;20202;-44
2022/06/08 09:10:45;;;;;;;5.87;3.73;;;17.70;99.90;;;;;;5040115;28;20214;-42
2022/06/08 09:13:17;;;;;;;4.60;2.93;;;17.80;99.90;;;;;;5053151;28;20264;-41
2022/06/08 09:15:48;;;;;;;6.97;4.30;;;17.90;99.90;;;;;;5048518;28;20197;-42
2022/06/08 09:18:31;;;;;;;6.90;4.57;;;18.00;99.90;;;;;;5052748;28;20269;-43
2022/06/08 09:20:58;;;;;;;4.07;3.20;;;18.00;99.90;;;;;;5041721;28;20218;-42
2022/06/08 09:23:36;;;;;;;4.93;4.10;;;18.10;99.90;;;;;;5048741;28;20207;-41
2022/06/08 09:26:07;;;;;;;3.87;3.53;;;18.20;99.90;;;;;;5039049;28;20198;-47
2022/06/08 09:28:37;;;;;;;5.97;3.73;;;18.20;99.90;;;;;;5049028;28;20675;-42
2022/06/08 09:31:03;;;;;;;5.17;3.87;;;18.30;99.90;;;;;;5051208;28;20969;-47
2022/06/08 09:33:35;;;;;;;3.90;3.57;;;18.30;99.90;;;;;;5053453;28;20238;-42
2022/06/08 09:36:05;;;;;;;5.07;3.53;;;18.30;99.90;;;;;;5049405;28;20206;-44
2022/06/08 09:38:36;;;;;;;6.57;3.73;;;18.30;99.90;;;;;;5046377;28;20206;-42
2022/06/08 09:41:22;;;;;;;3.37;2.90;;;18.30;99.90;;;;;;5052506;28;20213;-42
2022/06/08 09:44:12;;;;;;;3.60;3.30;;;18.50;99.90;;;;;;5049463;28;20229;-44
2022/06/08 09:52:32;;;;;;;5.67;4.67;;;19.10;99.90;;;;;;5051311;28;20560;-44
2022/06/08 09:55:09;;;;;;;4.73;4.30;;;19.20;99.90;;;;;;5051501;28;20213;-46
2022/06/08 09:57:42;;;;;;;5.83;5.27;;;19.30;99.90;;;;;;5039682;28;20198;-42
2022/06/08 10:00:27;;;;;;;6.27;5.67;;;19.30;99.90;;;;;;5060240;28;20285;-41
2022/06/08 10:03:08;;;;;;;7.87;7.07;;;19.30;99.90;;;;;;5050092;28;20202;-41
2022/06/08 10:05:42;;;;;;;7.30;6.47;;;19.30;99.90;;;;;;5055572;28;20289;-41
2022/06/08 10:08:21;;;;;;;7.63;6.63;;;19.30;99.90;;;;;;5050967;28;20202;-42
2022/06/08 10:10:59;;;;;;;8.97;7.83;;;19.40;99.90;;;;;;5051070;28;20215;-41
2022/06/08 10:13:33;;;;;;;9.43;8.00;;;19.50;99.90;;;;;;5041512;28;20695;-41
2022/06/08 10:16:05;;;;;;;11.37;7.80;;;19.60;99.90;;;;;;5049289;28;20199;-42
2022/06/08 10:18:39;;;;;;;8.07;7.27;;;19.60;99.90;;;;;;5051043;28;20225;-41
2022/06/08 10:21:13;;;;;;;8.07;7.07;;;19.80;99.90;;;;;;5059907;28;20215;-42
2022/06/08 10:23:46;;;;;;;9.93;7.63;;;20.00;99.90;;;;;;5054466;28;20271;-43
2022/06/08 10:26:19;;;;;;;10.90;8.80;;;20.10;99.90;;;;;;5044358;28;20211;-41
2022/06/08 10:28:49;;;;;;;8.33;7.40;;;20.10;99.90;;;;;;5046440;28;20229;-41
2022/06/08 10:31:22;;;;;;;8.97;7.70;;;20.10;99.90;;;;;;5050022;28;20289;-44
2022/06/08 10:33:56;;;;;;;9.90;8.33;;;20.20;99.90;;;;;;5046422;28;20202;-44
2022/06/08 10:36:24;;;;;;;8.90;8.00;;;20.20;99.90;;;;;;5052959;28;20655;-41
2022/06/08 10:38:51;;;;;;;8.97;8.07;;;20.30;99.90;;;;;;5049975;28;20203;-45
2022/06/08 10:44:47;;;;;;;8.83;7.93;;;20.20;99.90;;;;;;5041347;28;20577;-42
2022/06/08 10:47:26;;;;;;;7.90;7.20;;;20.40;99.90;;;;;;5046064;28;20223;-42
2022/06/08 10:49:56;;;;;;;8.80;8.00;;;20.40;99.90;;;;;;5044293;28;20699;-41
2022/06/08 10:52:29;;;;;;;8.13;7.43;;;20.60;99.90;;;;;;5044903;28;20211;-41
2022/06/08 10:55:40;;;;;;;9.00;8.10;;;20.60;99.90;;;;;;5048255;28;20830;-41
2022/06/08 10:58:18;;;;;;;8.53;6.73;;;20.80;99.90;;;;;;5028577;28;20860;-41
2022/06/08 11:01:09;;;;;;;7.53;6.80;;;20.80;99.90;;;;;;5033793;28;20218;-41
2022/06/08 11:04:01;;;;;;;7.70;6.80;;;20.90;99.90;;;;;;5035839;28;20207;-42
2022/06/08 11:06:58;;;;;;;8.60;7.80;;;21.20;99.90;;;;;;5045318;28;20344;-42
2022/06/08 11:09:51;;;;;;;8.43;7.47;;;21.30;99.90;;;;;;5045187;28;20296;-42
2022/06/08 11:12:30;;;;;;;9.43;7.30;;;21.20;99.90;;;;;;5050274;28;20199;-41
2022/06/08 11:14:59;;;;;;;10.83;7.67;;;21.20;99.90;;;;;;5043529;28;20659;-41
2022/06/08 11:17:32;;;;;;;7.40;6.43;;;21.20;99.90;;;;;;5044187;28;20215;-41
2022/06/08 11:20:13;;;;;;;7.30;6.67;;;21.30;99.90;;;;;;5052361;28;20214;-41
2022/06/08 11:22:44;;;;;;;8.23;7.30;;;21.40;99.90;;;;;;5052861;28;20217;-42
2022/06/08 11:25:16;;;;;;;11.57;7.80;;;21.40;99.90;;;;;;5050721;28;20291;-42
2022/06/08 11:27:44;;;;;;;8.27;7.53;;;21.50;99.90;;;;;;5045484;28;20210;-42
2022/06/08 11:30:44;;;;;;;7.00;5.93;;;21.50;99.90;;;;;;5031529;28;20307;-43
2022/06/08 11:33:16;;;;;;;7.33;6.50;;;21.60;99.90;;;;;;5044462;28;20199;-42
2022/06/08 11:36:00;;;;;;;7.20;6.50;;;22.00;99.90;;;;;;5062749;28;20693;-42
2022/06/08 11:38:50;;;;;;;7.82;7.10;;;22.20;99.90;;;;;;5051747;28;20568;-43
2022/06/08 11:41:29;;;;;;;6.70;6.10;;;22.10;99.90;;;;;;5046888;28;20187;-45
2022/06/08 11:43:56;;;;;;;7.80;7.10;;;22.10;99.90;;;;;;5046876;28;20209;-43
2022/06/08 11:46:29;;;;;;;7.57;6.50;;;22.10;99.90;;;;;;5047616;28;20202;-42
2022/06/08 11:48:56;;;;;;;7.20;6.50;;;22.00;99.90;;;;;;5053505;28;20682;-42
2022/06/08 11:51:34;;;;;;;7.75;6.47;;;21.90;99.90;;;;;;5051019;28;20211;-43
2022/06/08 11:54:15;;;;;;;7.88;6.45;;;21.90;99.90;;;;;;5049773;28;20203;-41
2022/06/08 11:56:51;;;;;;;7.63;6.95;;;21.90;99.90;;;;;;5045433;28;20211;-42
2022/06/08 11:59:20;;;;;;;7.55;6.85;;;21.80;99.90;;;;;;5047689;28;20214;-41
2022/06/08 12:01:52;;;;;;;7.65;6.90;;;21.80;99.90;;;;;;5042041;28;20204;-41
2022/06/08 12:04:22;;;;;;;7.60;6.90;;;21.80;99.90;;;;;;5042495;28;20198;-43
2022/06/08 12:06:52;;;;;;;7.63;6.88;;;21.70;99.90;;;;;;5052437;28;20211;-41
2022/06/08 12:09:22;;;;;;;7.88;6.40;;;21.70;99.90;;;;;;5048171;28;20233;-43
2022/06/08 12:11:52;;;;;;;8.77;7.30;;;21.70;99.90;;;;;;5044514;28;20710;-42
2022/06/08 12:14:26;;;;;;;7.32;6.57;;;21.80;99.90;;;;;;5042966;28;20211;-42
2022/06/08 12:16:57;;;;;;;6.40;5.80;;;21.90;99.90;;;;;;5037135;28;20230;-43
2022/06/08 12:19:29;;;;;;;6.43;5.88;;;22.10;99.90;;;;;;5042214;28;20231;-43
2022/06/08 12:22:16;;;;;;;6.38;5.88;;;22.10;99.90;;;;;;5049652;28;20195;-43
2022/06/08 12:24:45;;;;;;;5.10;4.53;;;22.10;99.90;;;;;;5042928;28;20207;-42
2022/06/08 12:27:20;;;;;;;5.18;4.72;;;22.10;99.90;;;;;;5045448;28;20282;-44
2022/06/08 12:29:54;;;;;;;5.20;4.80;;;22.30;99.90;;;;;;5046392;28;20214;-45
2022/06/08 12:32:33;;;;;;;5.07;4.18;;;22.40;99.90;;;;;;5034900;28;20206;-42
2022/06/08 12:35:24;;;;;;;5.43;4.93;;;22.40;99.10;;;;;;5064593;28;20659;-46
2022/06/08 12:38:14;;;;;;;5.70;5.30;;;22.50;98.10;;;;;;5042127;28;20206;-44
2022/06/08 12:40:42;;;;;;;5.88;5.38;;;22.30;97.80;;;;;;5048185;28;20226;-42
2022/06/08 12:43:19;;;;;;;5.53;5.13;;;22.40;98.90;;;;;;5047610;28;20199;-42
2022/06/08 12:46:19;;;;;;;6.00;5.50;;;22.60;98.80;;;;;;5038388;28;20206;-42
2022/06/08 12:48:48;;;;;;;5.78;5.28;;;22.70;97.20;;;;;;5041337;28;20682;-42
2022/06/08 12:51:32;;;;;;;6.25;5.75;;;22.40;97.80;;;;;;5050673;28;20215;-43
2022/06/08 12:54:03;;;;;;;6.57;6.07;;;22.30;98.20;;;;;;5047946;28;20199;-42
2022/06/08 12:56:30;;;;;;;4.95;4.65;;;22.30;98.20;;;;;;5041054;28;20192;-45
2022/06/08 12:58:57;;;;;;;5.72;5.20;;;22.30;98.00;;;;;;5047862;28;20684;-42
2022/06/08 13:01:27;;;;;;;6.70;6.10;;;22.30;97.90;;;;;;5040092;28;20262;-43
2022/06/08 13:03:55;;;;;;;5.80;5.30;;;22.30;97.60;;;;;;5045418;28;20614;-42
2022/06/08 13:06:24;;;;;;;6.25;5.75;;;22.30;98.00;;;;;;5043984;28;20233;-43
2022/06/08 13:08:51;;;;;;;6.28;5.78;;;22.40;98.20;;;;;;5039621;28;20660;-45
2022/06/08 13:11:23;;;;;;;5.72;5.18;;;22.40;97.70;;;;;;5046016;28;20210;-43
2022/06/08 13:13:54;;;;;;;5.30;4.90;;;22.30;99.20;;;;;;5033782;28;20233;-47
2022/06/08 13:16:24;;;;;;;6.00;5.40;;;22.30;99.70;;;;;;5047962;28;20233;-43
2022/06/08 13:18:51;;;;;;;5.20;4.80;;;22.20;98.40;;;;;;5049208;28;20697;-43
2022/06/08 13:21:19;;;;;;;5.35;4.93;;;22.20;99.10;;;;;;5040028;28;20207;-44
2022/06/08 13:23:47;;;;;;;5.18;4.78;;;22.20;98.60;;;;;;5050018;28;20274;-47
2022/06/08 13:26:17;;;;;;;6.53;4.72;;;22.00;97.80;;;;;;5042086;28;20278;-43